Time;durP1;ratioP1;P1;durP2;ratioP2;P2;SDS_P1;SDS_P2;PMS_P1;PMS_P2;Temp;Humidity;BMP_temperature;BMP_pressure;BME280_temperature;BME280_humidity;BME280_pressure;Samples;Min_cycle;Max_cycle;Signal;HPM_P1;HPM_P2
2021/01/16 00:01:35;;;;;;;5.22;2.90;;;;;;;26.15;28.31;97498.25;4974180;28;20042;-45
2021/01/16 00:04:00;;;;;;;7.80;3.05;;;;;;;26.14;28.20;97499.19;4971008;28;20080;-45
2021/01/16 00:06:28;;;;;;;5.97;2.60;;;;;;;26.13;28.30;97493.09;4970197;28;20061;-45
2021/01/16 00:08:57;;;;;;;4.38;2.63;;;;;;;26.13;27.92;97497.47;4968340;28;20074;-44
2021/01/16 00:11:23;;;;;;;4.90;2.63;;;;;;;26.13;28.39;97489.59;4960374;28;20042;-41
2021/01/16 00:13:48;;;;;;;4.70;2.70;;;;;;;26.13;28.34;97492.22;4974340;28;20078;-42
2021/01/16 00:16:14;;;;;;;6.28;2.88;;;;;;;26.13;28.24;97489.59;4972403;28;20038;-42
2021/01/16 00:18:39;;;;;;;5.28;2.30;;;;;;;26.12;28.16;97486.09;4973998;28;20042;-42
2021/01/16 00:21:05;;;;;;;5.13;2.80;;;;;;;26.08;28.11;97477.50;4980471;28;20661;-44
2021/01/16 00:23:31;;;;;;;4.90;2.50;;;;;;;26.13;28.00;97476.47;4980797;28;20042;-42
2021/01/16 00:25:56;;;;;;;5.03;2.63;;;;;;;26.13;28.33;97481.72;4976790;28;20046;-44
2021/01/16 00:28:23;;;;;;;4.43;2.67;;;;;;;26.13;28.28;97476.47;4971566;28;20034;-42
2021/01/16 00:30:48;;;;;;;5.07;2.63;;;;;;;26.10;28.40;97478.28;4970697;28;20042;-45
2021/01/16 00:33:21;;;;;;;5.93;3.05;;;;;;;26.11;28.10;97479.16;4974336;28;20042;-45
2021/01/16 00:35:47;;;;;;;5.65;2.47;;;;;;;26.11;28.09;97479.16;4979914;28;20121;-40
2021/01/16 00:38:13;;;;;;;3.70;2.50;;;;;;;26.00;28.29;97465.66;4963459;28;20488;-42
2021/01/16 00:40:38;;;;;;;4.88;2.70;;;;;;;26.09;28.14;97475.75;4966623;28;20072;-44
2021/01/16 00:43:09;;;;;;;4.82;2.65;;;;;;;26.10;27.86;97469.56;4972259;28;20045;-39
2021/01/16 00:45:35;;;;;;;5.50;2.60;;;;;;;26.10;27.91;97477.44;4972897;28;20038;-44
2021/01/16 00:48:08;;;;;;;5.72;2.35;;;;;;;26.10;27.98;97473.03;4980171;28;20105;-42
2021/01/16 00:50:33;;;;;;;6.15;2.47;;;;;;;26.09;28.10;97473.97;4970510;28;20718;-42
2021/01/16 00:52:59;;;;;;;4.43;2.42;;;;;;;26.09;28.11;97470.50;4973940;28;20054;-41
2021/01/16 00:55:25;;;;;;;4.57;2.20;;;;;;;26.07;28.09;97472.31;4976613;28;20042;-43
2021/01/16 00:57:51;;;;;;;4.70;2.50;;;;;;;26.08;28.01;97474.03;4972637;28;20136;-43
2021/01/16 01:00:18;;;;;;;4.97;2.40;;;;;;;26.07;28.11;97478.44;4974971;28;20038;-45
2021/01/16 01:02:43;;;;;;;3.90;2.47;;;;;;;26.06;28.01;97479.38;4975513;28;20038;-44
2021/01/16 01:05:12;;;;;;;4.70;2.15;;;;;;;26.07;28.25;97475.81;4978220;28;20084;-44
2021/01/16 01:07:39;;;;;;;4.50;2.42;;;;;;;26.06;27.94;97474.13;4973199;28;20156;-38
2021/01/16 01:10:06;;;;;;;4.10;2.20;;;;;;;26.06;28.00;97476.75;4979866;28;20038;-41
2021/01/16 01:12:31;;;;;;;3.85;2.03;;;;;;;26.06;28.04;97479.38;4983771;28;20602;-42
2021/01/16 01:14:57;;;;;;;3.10;2.13;;;;;;;26.05;27.98;97480.25;4977458;28;20058;-41
2021/01/16 01:17:22;;;;;;;3.72;2.28;;;;;;;26.06;27.98;97475.88;4975415;28;20042;-42
2021/01/16 01:19:48;;;;;;;3.58;2.05;;;;;;;26.06;27.82;97482.00;4978004;28;20042;-45
2021/01/16 01:22:14;;;;;;;4.20;2.42;;;;;;;26.05;27.78;97474.19;4975269;28;20035;-43
2021/01/16 01:24:39;;;;;;;3.75;2.17;;;;;;;26.06;27.97;97479.38;4977038;28;20081;-41
2021/01/16 01:27:05;;;;;;;4.22;2.10;;;;;;;26.04;27.85;97480.31;4976546;28;20042;-45
2021/01/16 01:29:31;;;;;;;4.40;2.20;;;;;;;26.06;27.83;97487.25;4972228;28;20507;-43
2021/01/16 01:31:56;;;;;;;3.90;2.15;;;;;;;26.06;27.92;97487.25;4971828;28;20042;-45
2021/01/16 01:34:22;;;;;;;2.63;1.90;;;;;;;26.06;27.84;97481.13;4976129;28;20419;-42
2021/01/16 01:36:47;;;;;;;3.88;2.33;;;;;;;26.07;27.92;97481.06;4973606;28;20065;-42
2021/01/16 01:39:13;;;;;;;4.07;2.28;;;;;;;26.07;27.90;97483.69;4972494;28;20065;-43
2021/01/16 01:41:38;;;;;;;3.95;2.10;;;;;;;26.05;27.75;97490.78;4980997;28;20050;-45
2021/01/16 01:44:04;;;;;;;4.32;1.88;;;;;;;26.05;27.77;97484.69;4984631;28;20034;-44
2021/01/16 01:46:31;;;;;;;2.83;2.05;;;;;;;26.05;27.83;97485.53;4974868;28;20796;-42
2021/01/16 01:48:56;;;;;;;3.17;2.20;;;;;;;26.04;27.65;97483.81;4963419;28;20045;-42
2021/01/16 01:51:22;;;;;;;2.92;2.00;;;;;;;26.04;28.01;97489.06;4973396;28;20038;-41
2021/01/16 01:53:48;;;;;;;6.78;2.00;;;;;;;26.03;27.96;97490.00;4976449;28;20734;-45
2021/01/16 01:56:13;;;;;;;3.45;2.03;;;;;;;26.02;27.87;97496.19;4945182;28;20054;-45
2021/01/16 01:58:38;;;;;;;3.65;2.00;;;;;;;25.98;27.94;97496.34;4964473;28;20035;-45
2021/01/16 02:01:04;;;;;;;3.15;1.98;;;;;;;26.01;27.83;97499.69;4975660;28;20038;-44
2021/01/16 02:03:30;;;;;;;4.38;1.95;;;;;;;26.02;27.97;97495.31;4978910;28;20401;-42
2021/01/16 02:05:56;;;;;;;2.92;1.90;;;;;;;26.01;27.96;97489.19;4975485;28;20061;-42
2021/01/16 02:08:21;;;;;;;2.70;1.80;;;;;;;26.00;27.91;97498.00;4976362;28;20569;-43
2021/01/16 02:10:47;;;;;;;2.92;1.90;;;;;;;26.01;27.91;97494.44;4982730;28;20113;-44
2021/01/16 02:13:13;;;;;;;2.40;1.70;;;;;;;26.01;27.89;97494.44;4978642;28;20179;-44
2021/01/16 02:15:52;;;;;;;3.65;2.17;;;;;;;26.01;27.91;97489.19;4974143;28;20788;-43
2021/01/16 02:18:39;;;;;;;3.78;2.10;;;;;;;26.00;27.85;97487.50;4970994;28;20499;-43
2021/01/16 02:21:06;;;;;;;3.28;1.90;;;;;;;26.00;27.92;97486.66;4975643;28;20073;-44
2021/01/16 02:23:41;;;;;;;3.10;1.80;;;;;;;25.98;27.96;97483.22;4969740;28;20042;-42
2021/01/16 02:26:17;;;;;;;3.65;1.52;;;;;;;25.97;27.88;97479.75;4971767;28;20532;-44
2021/01/16 02:28:58;;;;;;;2.78;1.67;;;;;;;25.97;27.98;97474.50;4956506;28;20037;-44
2021/01/16 02:31:38;;;;;;;2.83;1.85;;;;;;;25.96;28.07;97471.03;4976942;28;20034;-44
2021/01/16 02:34:04;;;;;;;2.55;1.85;;;;;;;25.97;27.89;97469.22;4980215;28;20477;-43
2021/01/16 02:36:33;;;;;;;3.70;2.10;;;;;;;25.95;27.86;97476.34;4959914;28;20035;-43
2021/01/16 02:39:21;;;;;;;2.35;1.58;;;;;;;25.95;28.01;97468.47;4976791;28;20045;-43
2021/01/16 02:42:06;;;;;;;2.47;1.75;;;;;;;25.94;28.05;97472.00;4974621;28;20040;-43
2021/01/16 02:44:38;;;;;;;1.70;1.55;;;;;;;25.95;27.92;97468.47;4970226;28;20064;-44
2021/01/16 02:47:26;;;;;;;3.05;1.60;;;;;;;25.94;28.07;97467.59;4975503;28;20109;-43
2021/01/16 02:50:01;;;;;;;2.15;1.70;;;;;;;25.93;27.86;97481.66;4961618;28;20046;-44
2021/01/16 02:52:28;;;;;;;2.17;1.55;;;;;;;25.92;28.07;97477.31;4974878;28;20030;-43
2021/01/16 02:54:53;;;;;;;3.58;1.80;;;;;;;25.92;27.98;97473.84;4969495;28;20047;-42
2021/01/16 02:57:19;;;;;;;2.97;1.70;;;;;;;25.92;27.70;97479.09;4976197;28;20838;-44
2021/01/16 02:59:45;;;;;;;2.33;1.40;;;;;;;25.90;27.88;97473.91;4976672;28;20042;-42
2021/01/16 03:02:15;;;;;;;2.70;1.50;;;;;;;25.90;28.00;97471.28;4977898;28;20050;-42
2021/01/16 03:04:41;;;;;;;2.75;1.50;;;;;;;25.91;28.04;97472.13;4977419;28;20117;-44
2021/01/16 03:07:11;;;;;;;1.77;1.60;;;;;;;25.91;28.09;97472.13;4978658;28;22440;-40
2021/01/16 03:09:37;;;;;;;3.28;1.50;;;;;;;25.90;27.85;97473.06;4980442;28;20104;-45
2021/01/16 03:12:04;;;;;;;2.25;1.70;;;;;;;25.90;28.07;97475.69;4978282;28;20047;-43
2021/01/16 03:14:43;;;;;;;2.50;1.58;;;;;;;25.90;27.90;97470.44;4978098;28;20085;-36
2021/01/16 03:17:16;;;;;;;2.25;1.70;;;;;;;25.90;28.02;97473.06;4973010;28;20091;-41
2021/01/16 03:19:49;;;;;;;2.95;1.50;;;;;;;25.90;27.92;97470.44;4981766;28;20050;-42
2021/01/16 03:22:17;;;;;;;2.00;1.27;;;;;;;25.88;27.94;97470.50;4975588;28;20061;-44
2021/01/16 03:24:43;;;;;;;1.85;1.20;;;;;;;25.89;27.82;97474.00;4976061;28;20041;-44
2021/01/16 03:27:09;;;;;;;2.03;1.40;;;;;;;25.88;27.93;97472.25;4977238;28;20042;-43
2021/01/16 03:29:35;;;;;;;2.90;1.67;;;;;;;25.87;27.98;97473.19;4975366;28;20388;-44
2021/01/16 03:32:01;;;;;;;2.20;1.55;;;;;;;25.87;27.86;97476.69;4974706;28;20110;-44
2021/01/16 03:34:27;;;;;;;1.50;1.30;;;;;;;25.86;28.07;97469.72;4960181;28;20062;-44
2021/01/16 03:36:53;;;;;;;2.53;1.60;;;;;;;25.88;27.86;97472.25;4975619;28;20034;-42
2021/01/16 03:39:18;;;;;;;1.40;1.20;;;;;;;25.87;28.04;97470.56;4984239;28;20038;-43
2021/01/16 03:41:44;;;;;;;2.63;1.33;;;;;;;25.88;27.94;97472.25;4977122;28;20042;-43
2021/01/16 03:44:09;;;;;;;2.33;1.73;;;;;;;25.87;28.14;97471.44;4953942;28;20050;-42
2021/01/16 03:46:36;;;;;;;1.85;1.50;;;;;;;25.88;27.94;97474.88;4971576;28;20049;-45
2021/01/16 03:49:01;;;;;;;1.80;1.30;;;;;;;25.87;28.04;97465.31;4982993;28;20042;-43
2021/01/16 03:51:27;;;;;;;2.08;1.35;;;;;;;25.85;28.04;97472.41;4982212;28;20081;-41
2021/01/16 03:53:52;;;;;;;1.85;1.30;;;;;;;25.85;28.01;97468.00;4973940;28;20097;-43
2021/01/16 03:56:18;;;;;;;2.80;1.55;;;;;;;25.83;27.91;97465.44;4974434;28;20047;-43
2021/01/16 03:58:43;;;;;;;1.95;1.33;;;;;;;25.83;27.96;97464.59;4974069;28;20057;-44
2021/01/16 04:01:09;;;;;;;1.83;1.40;;;;;;;25.82;28.06;97468.97;4978164;28;20045;-43
2021/01/16 04:03:34;;;;;;;1.75;1.35;;;;;;;25.82;27.79;97463.72;4957391;28;21024;-44
2021/01/16 04:06:00;;;;;;;2.25;1.30;;;;;;;25.83;27.83;97469.84;4971078;28;20046;-45
2021/01/16 04:08:25;;;;;;;3.28;1.20;;;;;;;25.81;27.88;97467.28;4981132;28;20053;-43
2021/01/16 04:10:50;;;;;;;1.80;1.40;;;;;;;25.80;27.99;97476.09;4975765;28;20038;-44
2021/01/16 04:13:16;;;;;;;1.60;1.30;;;;;;;25.82;27.91;97482.09;4973194;28;20046;-44
2021/01/16 04:15:42;;;;;;;1.50;1.40;;;;;;;25.81;27.85;97477.78;4967795;28;20924;-40
2021/01/16 04:18:10;;;;;;;1.35;1.20;;;;;;;25.81;27.88;97487.41;4970474;28;20042;-40
2021/01/16 04:20:36;;;;;;;2.40;1.15;;;;;;;25.79;27.92;97484.88;4975661;28;20038;-43
2021/01/16 04:23:02;;;;;;;1.95;1.25;;;;;;;25.80;27.96;97481.34;4974355;28;20069;-45
2021/01/16 04:25:29;;;;;;;1.35;1.20;;;;;;;25.79;27.99;97474.38;4981463;28;20061;-44
2021/01/16 04:27:55;;;;;;;1.80;1.33;;;;;;;25.79;28.13;97470.88;4968966;28;20045;-42
2021/01/16 04:30:22;;;;;;;1.90;1.30;;;;;;;25.80;27.86;97476.09;4974774;28;20846;-40
2021/01/16 04:32:51;;;;;;;2.65;1.40;;;;;;;25.79;28.02;97478.78;4971095;28;20607;-44
2021/01/16 04:35:16;;;;;;;1.38;1.27;;;;;;;25.78;28.11;97477.91;4982341;28;20512;-43
2021/01/16 04:37:44;;;;;;;1.88;1.40;;;;;;;25.79;28.08;97481.41;4975689;28;20038;-42
2021/01/16 04:40:11;;;;;;;1.15;0.98;;;;;;;25.79;28.15;97479.63;4979547;28;20439;-43
2021/01/16 04:42:41;;;;;;;1.30;1.20;;;;;;;25.78;27.97;97483.16;4980675;28;20866;-44
2021/01/16 04:45:07;;;;;;;2.17;1.30;;;;;;;25.77;28.01;97470.94;4965695;28;20404;-38
2021/01/16 04:47:32;;;;;;;3.67;1.30;;;;;;;25.78;28.11;97472.66;4973398;28;20503;-43
2021/01/16 04:49:59;;;;;;;1.65;1.25;;;;;;;25.68;28.12;97460.84;4967025;28;20057;-41
2021/01/16 04:52:27;;;;;;;2.17;1.10;;;;;;;25.77;28.04;97470.09;4975898;28;20034;-42
2021/01/16 04:54:54;;;;;;;1.23;1.08;;;;;;;25.77;27.98;97470.94;4970006;28;20621;-42
2021/01/16 04:57:21;;;;;;;1.52;1.13;;;;;;;25.75;28.16;97467.56;4982700;28;20046;-41
2021/01/16 04:59:46;;;;;;;1.17;1.08;;;;;;;25.76;28.18;97458.75;4961190;28;20594;-44
2021/01/16 05:02:12;;;;;;;2.60;1.50;;;;;;;25.76;28.04;97463.13;4944205;28;20042;-44
2021/01/16 05:04:40;;;;;;;1.45;1.10;;;;;;;25.75;28.21;97457.06;4973251;28;20165;-43
2021/01/16 05:07:06;;;;;;;1.80;1.23;;;;;;;25.76;28.21;97457.88;4974117;28;20550;-42
2021/01/16 05:09:32;;;;;;;1.30;1.10;;;;;;;25.76;27.84;97458.75;4966753;28;20044;-41
2021/01/16 05:12:24;;;;;;;1.58;1.25;;;;;;;25.75;28.06;97457.06;4981032;28;20507;-45
2021/01/16 05:14:55;;;;;;;;;;;;;;;25.75;27.96;97454.44;4952105;28;20096;-44
2021/01/16 05:17:21;;;;;;;1.30;1.17;;;;;;;25.75;28.11;97457.06;4981330;28;19918;-41
2021/01/16 05:19:46;;;;;;;1.70;1.20;;;;;;;25.76;28.17;97468.38;4980054;28;20123;-44
2021/01/16 05:22:12;;;;;;;1.20;0.90;;;;;;;25.76;28.11;97455.25;4960335;28;20030;-43
2021/01/16 05:24:37;;;;;;;1.42;1.15;;;;;;;25.77;28.09;97459.59;4981757;28;20133;-45
2021/01/16 05:27:05;;;;;;;1.73;1.38;;;;;;;25.76;28.08;97461.38;4975495;28;20077;-40
2021/01/16 05:29:32;;;;;;;0.90;0.90;;;;;;;25.77;28.28;97465.69;4977857;28;20038;-42
2021/01/16 05:31:59;;;;;;;2.65;1.00;;;;;;;25.78;28.08;97462.16;4976955;28;20089;-41
2021/01/16 05:34:29;;;;;;;1.90;1.17;;;;;;;25.78;28.12;97471.81;4976024;28;20573;-44
2021/01/16 05:36:54;;;;;;;0.80;0.80;;;;;;;25.79;27.92;97466.50;4963330;28;20041;-44
2021/01/16 05:39:20;;;;;;;1.10;1.00;;;;;;;25.81;28.14;97472.53;4977148;28;20057;-44
2021/01/16 05:41:46;;;;;;;0.95;0.82;;;;;;;25.82;27.85;97463.72;4985830;28;20042;-42
2021/01/16 05:44:12;;;;;;;1.65;1.15;;;;;;;25.82;28.15;97460.28;4977442;28;20050;-42
2021/01/16 05:46:37;;;;;;;1.02;0.90;;;;;;;25.83;28.05;97470.69;4980124;28;20471;-44
2021/01/16 05:49:03;;;;;;;1.10;1.00;;;;;;;25.83;27.95;97467.22;4977869;28;20043;-42
2021/01/16 05:51:30;;;;;;;1.20;1.10;;;;;;;25.83;28.03;97462.81;4979844;28;20042;-42
2021/01/16 05:53:56;;;;;;;1.13;1.00;;;;;;;25.84;28.06;97468.91;4980564;28;20137;-40
2021/01/16 05:56:22;;;;;;;1.40;1.15;;;;;;;25.85;27.85;97475.03;4980559;28;20054;-42
2021/01/16 05:58:48;;;;;;;1.65;1.02;;;;;;;25.85;27.88;97461.91;4978615;28;20041;-43
2021/01/16 06:01:23;;;;;;;0.95;0.85;;;;;;;25.85;27.96;97462.75;4964180;28;20496;-43
2021/01/16 06:03:53;;;;;;;1.48;1.20;;;;;;;25.85;28.08;97447.00;4982870;28;20831;-43
2021/01/16 06:06:19;;;;;;;1.05;0.95;;;;;;;25.87;27.83;97447.78;4983091;28;20049;-44
2021/01/16 06:08:48;;;;;;;1.35;1.20;;;;;;;25.88;27.96;97451.25;4978798;28;20125;-44
2021/01/16 06:11:14;;;;;;;0.85;0.82;;;;;;;25.92;27.79;97452.84;4975505;28;20038;-42
2021/01/16 06:13:39;;;;;;;1.42;0.88;;;;;;;25.92;27.69;97469.44;4979269;28;20054;-41
2021/01/16 06:16:05;;;;;;;0.88;0.80;;;;;;;25.91;27.92;97453.75;4953320;28;20562;-44
2021/01/16 06:18:43;;;;;;;1.15;1.05;;;;;;;25.93;27.67;97455.41;4962203;28;20093;-41
2021/01/16 06:21:08;;;;;;;1.13;1.02;;;;;;;25.93;27.90;97444.06;4983762;28;20041;-44
2021/01/16 06:23:34;;;;;;;0.75;0.70;;;;;;;25.93;27.78;97449.31;4959348;28;20038;-43
2021/01/16 06:26:06;;;;;;;1.63;1.08;;;;;;;25.93;27.75;97444.88;4963023;28;20042;-44
2021/01/16 06:28:31;;;;;;;1.13;1.00;;;;;;;25.94;27.75;97449.22;4972398;28;20077;-41
2021/01/16 06:30:58;;;;;;;1.08;0.98;;;;;;;25.92;27.88;97442.31;4940163;28;20133;-44
2021/01/16 06:33:26;;;;;;;1.10;1.00;;;;;;;25.95;27.85;97444.81;4966269;28;20129;-42
2021/01/16 06:35:56;;;;;;;1.00;0.90;;;;;;;25.96;27.83;97442.13;4978574;28;20045;-43
2021/01/16 06:38:32;;;;;;;0.98;0.80;;;;;;;25.96;27.84;97429.00;4981637;28;20069;-43
2021/01/16 06:41:10;;;;;;;1.15;1.00;;;;;;;25.96;27.79;97436.88;4977227;28;20511;-40
2021/01/16 06:43:37;;;;;;;1.17;0.93;;;;;;;25.97;27.82;97435.09;4969774;28;20069;-43
2021/01/16 06:46:11;;;;;;;1.52;1.02;;;;;;;25.97;27.78;97432.47;4972584;28;20053;-43
2021/01/16 06:48:41;;;;;;;0.98;0.93;;;;;;;25.95;27.66;97432.56;4985239;28;20640;-44
2021/01/16 06:51:08;;;;;;;1.50;1.10;;;;;;;25.96;27.77;97428.16;4976159;28;20049;-41
2021/01/16 06:53:34;;;;;;;1.13;0.90;;;;;;;25.96;27.83;97425.53;4975034;28;20575;-43
2021/01/16 06:56:03;;;;;;;1.10;1.00;;;;;;;25.96;27.77;97428.16;4975232;28;20038;-42
2021/01/16 06:58:38;;;;;;;1.23;1.02;;;;;;;25.96;27.88;97429.00;4979409;28;20562;-44
2021/01/16 07:01:05;;;;;;;1.20;1.00;;;;;;;25.95;27.61;97419.44;4961686;28;20050;-44
2021/01/16 07:03:30;;;;;;;1.00;0.90;;;;;;;25.97;27.63;97419.34;4975499;28;20035;-45
2021/01/16 07:05:56;;;;;;;1.45;1.08;;;;;;;25.98;27.85;97421.06;4973143;28;20496;-42
2021/01/16 07:08:22;;;;;;;1.00;0.90;;;;;;;25.97;27.84;97424.59;4971849;28;20044;-45
2021/01/16 07:10:47;;;;;;;1.25;0.90;;;;;;;25.95;27.87;97416.81;4961099;28;20038;-45
2021/01/16 07:13:13;;;;;;;1.20;1.10;;;;;;;25.96;27.93;97433.41;4960245;28;20522;-41
2021/01/16 07:15:39;;;;;;;2.85;1.15;;;;;;;25.97;27.83;97432.47;4958221;28;20074;-44
2021/01/16 07:18:04;;;;;;;1.30;0.80;;;;;;;25.96;27.77;97430.78;4957337;28;20053;-43
2021/01/16 07:20:30;;;;;;;1.17;0.90;;;;;;;25.96;27.87;97434.25;4972784;28;20039;-41
2021/01/16 07:22:55;;;;;;;1.65;0.98;;;;;;;25.95;27.99;97429.06;4959386;28;20038;-43
2021/01/16 07:25:22;;;;;;;1.30;1.05;;;;;;;25.98;27.95;97431.56;4956271;28;20042;-44
2021/01/16 07:27:47;;;;;;;3.72;1.00;;;;;;;25.98;27.76;97431.56;4976164;28;20255;-42
2021/01/16 07:30:14;;;;;;;3.00;1.60;;;;;;;25.95;27.83;97436.94;4969786;28;20042;-42
2021/01/16 07:32:40;;;;;;;2.08;1.13;;;;;;;25.94;27.88;97435.25;4978653;28;20073;-42
2021/01/16 07:35:10;;;;;;;1.35;1.10;;;;;;;25.93;27.90;97439.63;4976938;28;20640;-43
2021/01/16 07:37:35;;;;;;;1.63;1.30;;;;;;;25.92;28.00;97443.19;4978965;28;20044;-42
2021/01/16 07:40:02;;;;;;;1.17;1.08;;;;;;;25.93;27.80;97447.50;4977238;28;20507;-44
2021/01/16 07:42:28;;;;;;;2.10;1.40;;;;;;;25.93;27.88;97434.38;4973769;28;20161;-43
2021/01/16 07:45:14;;;;;;;1.88;1.20;;;;;;;25.96;27.76;97438.66;4969245;28;20046;-41
2021/01/16 07:47:41;;;;;;;2.05;1.10;;;;;;;25.95;27.88;97447.44;4949749;28;20058;-43
2021/01/16 07:50:15;;;;;;;4.95;1.73;;;;;;;25.93;27.84;97455.41;4972530;28;20648;-44
2021/01/16 07:52:40;;;;;;;5.45;1.90;;;;;;;25.94;27.72;97451.00;4964935;28;20018;-44
2021/01/16 07:55:07;;;;;;;2.47;2.25;;;;;;;25.93;27.55;97449.31;4952709;28;20057;-44
2021/01/16 07:57:33;;;;;;;3.13;2.10;;;;;;;25.93;27.77;97441.44;4974475;28;20077;-41
2021/01/16 08:00:03;;;;;;;3.90;2.50;;;;;;;25.92;27.55;97447.56;4976011;28;20325;-45
2021/01/16 08:02:28;;;;;;;9.68;3.50;;;;;;;25.90;27.22;97439.75;4948587;28;20069;-43
2021/01/16 08:05:45;;;;;;;4.60;2.38;;;;;;;25.88;27.42;97446.88;4972444;28;20040;-45
2021/01/16 08:08:36;;;;;;;3.90;2.67;;;;;;;25.89;27.30;97447.72;4891756;29;20028;-44
2021/01/16 08:11:02;;;;;;;2.90;2.58;;;;;;;25.86;27.48;97445.22;4899524;29;20051;-45
2021/01/16 08:13:28;;;;;;;10.45;3.85;;;;;;;25.86;27.03;97442.59;4960145;28;20893;-43
2021/01/16 08:15:53;;;;;;;8.25;5.63;;;;;;;25.86;25.21;97439.97;4955369;28;20046;-44
2021/01/16 08:18:22;;;;;;;7.40;5.70;;;;;;;25.86;24.53;97445.22;4965330;28;20494;-44
2021/01/16 08:20:48;;;;;;;5.90;5.03;;;;;;;25.82;24.49;97437.47;4979919;28;20046;-45
2021/01/16 08:23:21;;;;;;;7.88;4.95;;;;;;;25.78;24.44;97446.41;4976084;28;20577;-44
2021/01/16 08:25:47;;;;;;;7.93;4.65;;;;;;;25.75;24.27;97437.81;4972794;28;20121;-44
2021/01/16 08:28:12;;;;;;;6.20;4.88;;;;;;;25.73;24.34;97435.25;4969555;28;20080;-45
2021/01/16 08:30:38;;;;;;;6.70;4.15;;;;;;;25.68;24.46;97435.47;4958746;28;20557;-43
2021/01/16 08:33:04;;;;;;;7.60;4.75;;;;;;;25.63;24.17;97432.16;4963435;28;20096;-45
2021/01/16 08:35:32;;;;;;;5.75;4.22;;;;;;;25.58;24.33;97431.50;4977167;28;20046;-43
2021/01/16 08:38:15;;;;;;;6.07;4.70;;;;;;;25.54;24.10;97430.75;4979194;28;20061;-45
2021/01/16 08:40:41;;;;;;;4.07;3.00;;;;;;;25.51;26.57;97432.66;4976522;28;20045;-44
2021/01/16 08:43:06;;;;;;;8.63;3.05;;;;;;;25.48;26.90;97423.16;4972877;28;20046;-42
2021/01/16 08:45:32;;;;;;;5.43;2.88;;;;;;;25.48;27.33;97431.03;4973101;28;20050;-43
2021/01/16 08:47:59;;;;;;;4.78;2.63;;;;;;;25.48;27.21;97428.41;4977035;28;20523;-45
2021/01/16 08:50:34;;;;;;;4.60;2.60;;;;;;;25.51;27.41;97423.00;4976700;28;20050;-44
2021/01/16 08:53:00;;;;;;;3.58;2.20;;;;;;;25.54;27.53;97428.13;4972131;28;20038;-44
2021/01/16 08:55:29;;;;;;;2.75;2.35;;;;;;;25.58;27.68;97418.38;4975880;28;20631;-41
2021/01/16 08:58:07;;;;;;;3.83;2.38;;;;;;;25.63;27.91;97420.81;4976661;28;20038;-41
2021/01/16 09:00:34;;;;;;;3.05;2.15;;;;;;;25.68;27.78;97424.09;4970345;28;20057;-44
2021/01/16 09:03:08;;;;;;;2.80;2.30;;;;;;;25.73;27.78;97421.28;4975260;28;20091;-43
2021/01/16 09:05:34;;;;;;;3.33;2.13;;;;;;;25.74;27.73;97423.81;4974894;28;20089;-44
2021/01/16 09:08:00;;;;;;;3.28;2.28;;;;;;;25.78;27.84;97424.56;4972756;28;20157;-44
2021/01/16 09:10:26;;;;;;;5.63;2.35;;;;;;;25.80;27.83;97423.56;4972004;28;20038;-44
2021/01/16 09:12:52;;;;;;;2.83;2.13;;;;;;;25.82;27.76;97431.38;4979111;28;20038;-45
2021/01/16 09:15:22;;;;;;;2.17;1.98;;;;;;;25.83;27.92;97433.09;4971094;28;20046;-44
2021/01/16 09:18:09;;;;;;;3.88;2.17;;;;;;;25.85;27.83;97431.25;4973815;28;20042;-43
2021/01/16 09:20:39;;;;;;;2.17;1.98;;;;;;;25.86;27.73;97443.47;4978768;28;20689;-45
2021/01/16 09:23:26;;;;;;;2.50;2.10;;;;;;;25.87;27.82;97455.66;4973565;28;20046;-44
2021/01/16 09:26:03;;;;;;;3.35;2.42;;;;;;;25.89;27.76;97447.72;4972707;28;20045;-43
2021/01/16 09:29:00;;;;;;;2.03;1.77;;;;;;;25.93;27.85;97449.31;4968483;28;20030;-45
2021/01/16 09:31:28;;;;;;;2.58;2.00;;;;;;;25.95;27.86;97452.72;4955836;28;20487;-43
2021/01/16 09:33:55;;;;;;;3.38;2.33;;;;;;;25.96;27.81;97451.78;4975275;28;20129;-43
2021/01/16 09:36:40;;;;;;;4.55;1.88;;;;;;;26.00;27.85;97450.72;4955852;28;20034;-45
2021/01/16 09:39:06;;;;;;;3.03;2.28;;;;;;;26.02;27.93;97451.53;4971813;28;20101;-45
2021/01/16 09:41:33;;;;;;;2.90;1.98;;;;;;;26.02;27.96;97458.53;4970186;28;22555;-41
2021/01/16 09:43:59;;;;;;;3.10;1.90;;;;;;;26.02;27.81;97464.66;4958559;28;20038;-44
2021/01/16 09:46:55;;;;;;;8.85;6.32;;;;;;;25.94;20.88;97451.84;4970070;28;20046;-44
2021/01/16 09:49:21;;;;;;;14.27;8.57;;;;;;;25.35;16.65;97458.69;4976654;28;20100;-45
2021/01/16 09:51:46;;;;;;;20.95;8.93;;;;;;;24.77;17.01;97447.75;4979438;28;20857;-44
2021/01/16 09:54:15;;;;;;;10.13;7.10;;;;;;;24.46;18.90;97448.94;4974584;28;20047;-43
2021/01/16 09:56:48;;;;;;;8.57;6.60;;;;;;;24.31;21.56;97445.09;4974126;28;20532;-43
2021/01/16 09:59:23;;;;;;;9.43;5.50;;;;;;;24.28;22.57;97438.22;4976897;28;20045;-43
2021/01/16 10:02:07;;;;;;;11.60;4.65;;;;;;;24.34;23.35;97437.16;4969973;28;20050;-44
2021/01/16 10:04:37;;;;;;;5.97;4.32;;;;;;;24.41;23.88;97441.25;4973298;28;20038;-43
2021/01/16 10:07:13;;;;;;;8.23;4.38;;;;;;;24.46;24.57;97427.97;4971225;28;20038;-43
2021/01/16 10:09:49;;;;;;;11.13;4.70;;;;;;;24.41;24.98;97415.06;4976683;28;20050;-44
2021/01/16 10:12:33;;;;;;;7.80;4.25;;;;;;;24.69;24.90;97434.97;4979675;28;20130;-44
2021/01/16 10:15:04;;;;;;;16.70;3.97;;;;;;;24.78;24.95;97416.25;4981036;28;20443;-42
2021/01/16 10:17:30;;;;;;;7.53;3.75;;;;;;;24.89;25.23;97408.00;4979063;28;20064;-45
2021/01/16 10:20:16;;;;;;;12.85;3.95;;;;;;;25.00;24.99;97407.56;4967206;28;20110;-44
2021/01/16 10:22:42;;;;;;;11.25;3.90;;;;;;;25.03;25.01;97399.59;4983294;28;20635;-43
2021/01/16 10:25:09;;;;;;;4.68;3.53;;;;;;;25.11;25.13;97399.28;4976727;28;20200;-43
2021/01/16 10:27:52;;;;;;;7.63;3.80;;;;;;;25.16;25.28;97394.69;4970732;28;20589;-43
2021/01/16 10:30:22;;;;;;;9.48;4.07;;;;;;;25.21;25.50;97389.28;4979166;28;20039;-45
2021/01/16 10:32:47;;;;;;;7.07;4.20;;;;;;;25.27;25.51;97386.38;4974700;28;20062;-43
2021/01/16 10:35:20;;;;;;;14.15;4.43;;;;;;;25.33;25.45;97372.16;4981579;28;20070;-44
2021/01/16 10:37:45;;;;;;;20.58;4.50;;;;;;;25.37;25.74;97365.00;4976163;28;20104;-44
2021/01/16 10:40:11;;;;;;;8.60;4.25;;;;;;;25.41;25.54;97364.81;4983557;28;20046;-42
2021/01/16 10:42:41;;;;;;;13.38;3.88;;;;;;;25.46;25.65;97362.00;4977183;28;20130;-43
2021/01/16 10:45:08;;;;;;;7.13;4.00;;;;;;;25.49;25.73;97363.63;4981026;28;20053;-41
2021/01/16 10:47:35;;;;;;;12.15;4.05;;;;;;;25.51;25.62;97353.94;4976111;28;20496;-42
2021/01/16 10:50:15;;;;;;;11.30;3.85;;;;;;;25.53;25.92;97346.84;4973926;28;20057;-45
2021/01/16 10:52:40;;;;;;;14.48;3.70;;;;;;;25.56;25.60;97344.13;4974047;28;20029;-44
2021/01/16 10:55:13;;;;;;;7.13;3.40;;;;;;;25.53;26.01;97339.81;4974115;28;20042;-44
2021/01/16 10:57:46;;;;;;;8.20;3.80;;;;;;;25.55;26.14;97340.59;4974177;28;20046;-43
2021/01/16 11:00:13;;;;;;;9.05;3.50;;;;;;;25.56;26.32;97337.06;4972100;28;20773;-45
2021/01/16 11:02:43;;;;;;;9.75;3.92;;;;;;;25.58;26.30;97342.25;4970346;28;20514;-44
2021/01/16 11:05:24;;;;;;;8.65;3.58;;;;;;;25.59;26.26;97332.63;4958223;28;20046;-45
2021/01/16 19:00:18;;;;;;;8.55;3.20;;;;;;;23.96;33.71;96935.84;5093332;27;21049;-36
2021/01/16 19:02:44;;;;;;;9.30;3.50;;;;;;;24.32;32.79;96929.06;5066251;28;20063;-32
2021/01/16 19:05:09;;;;;;;5.93;3.40;;;;;;;24.66;30.91;96927.56;5060649;28;20052;-39
2021/01/16 19:07:35;;;;;;;4.97;3.30;;;;;;;24.96;30.76;96913.09;5059983;28;20044;-43
2021/01/16 19:10:01;;;;;;;5.13;2.88;;;;;;;25.26;30.58;96920.41;5064247;28;20037;-40
2021/01/16 19:12:28;;;;;;;10.48;3.38;;;;;;;25.49;30.29;96910.56;5066626;28;20047;-34
2021/01/16 19:14:54;;;;;;;8.55;3.55;;;;;;;25.72;29.87;96910.34;5066040;28;20046;-42
2021/01/16 19:17:20;;;;;;;12.85;3.47;;;;;;;25.89;30.50;96906.88;5064389;28;20040;-40
2021/01/16 19:19:46;;;;;;;5.47;3.40;;;;;;;26.07;29.20;96900.66;5069184;28;20068;-39
2021/01/16 19:22:12;;;;;;;6.95;3.50;;;;;;;26.20;29.48;96889.50;5067562;28;20036;-35
2021/01/16 19:24:38;;;;;;;5.32;3.22;;;;;;;26.32;28.71;96894.09;5068284;28;20097;-34
2021/01/16 19:27:04;;;;;;;14.38;3.58;;;;;;;26.45;28.34;96890.81;5066695;28;20036;-31
2021/01/16 19:29:30;;;;;;;7.35;3.20;;;;;;;26.55;28.18;96892.00;5066792;28;20045;-34
2021/01/16 19:31:56;;;;;;;7.53;3.45;;;;;;;26.68;27.80;96883.44;5061455;28;20048;-31
2021/01/16 19:34:21;;;;;;;10.15;3.15;;;;;;;26.77;27.78;96877.69;5067126;28;20032;-36